sensor_id;sensor_type;location;lat;lon;timestamp;P1;durP1;ratioP1;P2;durP2;ratioP2
58376;SDS011;58852;43.460;19.812;2022-08-18T00:01:47;10.00;;;7.93;;
58376;SDS011;58852;43.460;19.812;2022-08-18T00:04:14;10.48;;;7.32;;
58376;SDS011;58852;43.460;19.812;2022-08-18T00:06:41;8.43;;;7.50;;
58376;SDS011;58852;43.460;19.812;2022-08-18T00:09:08;10.82;;;8.82;;
58376;SDS011;58852;43.460;19.812;2022-08-18T00:11:37;9.38;;;7.70;;
58376;SDS011;58852;43.460;19.812;2022-08-18T00:14:04;13.80;;;7.93;;
58376;SDS011;58852;43.460;19.812;2022-08-18T00:16:30;12.65;;;7.55;;
58376;SDS011;58852;43.460;19.812;2022-08-18T00:18:57;11.38;;;7.22;;
58376;SDS011;58852;43.460;19.812;2022-08-18T00:21:23;11.02;;;8.10;;
58376;SDS011;58852;43.460;19.812;2022-08-18T00:23:49;9.45;;;7.25;;
58376;SDS011;58852;43.460;19.812;2022-08-18T00:26:15;9.95;;;7.38;;
58376;SDS011;58852;43.460;19.812;2022-08-18T00:28:41;10.38;;;7.30;;
58376;SDS011;58852;43.460;19.812;2022-08-18T00:31:07;12.85;;;7.63;;
58376;SDS011;58852;43.460;19.812;2022-08-18T00:33:33;12.00;;;7.40;;
58376;SDS011;58852;43.460;19.812;2022-08-18T00:35:59;10.40;;;7.32;;
58376;SDS011;58852;43.460;19.812;2022-08-18T00:38:25;8.93;;;7.10;;
58376;SDS011;58852;43.460;19.812;2022-08-18T00:40:51;15.15;;;7.60;;
58376;SDS011;58852;43.460;19.812;2022-08-18T00:45:59;11.57;;;7.15;;
58376;SDS011;58852;43.460;19.812;2022-08-18T00:48:25;13.45;;;8.00;;
58376;SDS011;58852;43.460;19.812;2022-08-18T00:50:55;9.15;;;7.30;;
58376;SDS011;58852;43.460;19.812;2022-08-18T00:53:26;12.32;;;8.15;;
58376;SDS011;58852;43.460;19.812;2022-08-18T00:55:55;8.98;;;8.02;;
58376;SDS011;58852;43.460;19.812;2022-08-18T00:58:27;8.88;;;7.82;;
58376;SDS011;58852;43.460;19.812;2022-08-18T01:00:54;8.27;;;7.28;;
58376;SDS011;58852;43.460;19.812;2022-08-18T01:03:20;11.85;;;8.00;;
58376;SDS011;58852;43.460;19.812;2022-08-18T01:05:59;8.02;;;7.20;;
58376;SDS011;58852;43.460;19.812;2022-08-18T01:08:26;10.68;;;8.48;;
58376;SDS011;58852;43.460;19.812;2022-08-18T01:10:52;10.73;;;8.02;;
58376;SDS011;58852;43.460;19.812;2022-08-18T01:13:19;12.15;;;8.45;;
58376;SDS011;58852;43.460;19.812;2022-08-18T01:15:45;12.32;;;7.97;;
58376;SDS011;58852;43.460;19.812;2022-08-18T01:18:12;11.18;;;8.10;;
58376;SDS011;58852;43.460;19.812;2022-08-18T01:23:56;9.88;;;7.97;;
58376;SDS011;58852;43.460;19.812;2022-08-18T01:26:23;11.40;;;8.32;;
58376;SDS011;58852;43.460;19.812;2022-08-18T01:28:50;8.70;;;7.13;;
58376;SDS011;58852;43.460;19.812;2022-08-18T01:31:31;8.95;;;8.00;;
58376;SDS011;58852;43.460;19.812;2022-08-18T01:34:01;13.38;;;8.82;;
58376;SDS011;58852;43.460;19.812;2022-08-18T01:36:28;10.10;;;7.35;;
58376;SDS011;58852;43.460;19.812;2022-08-18T01:38:55;13.57;;;9.07;;
58376;SDS011;58852;43.460;19.812;2022-08-18T01:41:21;11.55;;;9.35;;
58376;SDS011;58852;43.460;19.812;2022-08-18T01:43:48;12.05;;;8.50;;
58376;SDS011;58852;43.460;19.812;2022-08-18T01:46:18;10.88;;;8.90;;
58376;SDS011;58852;43.460;19.812;2022-08-18T01:48:45;10.30;;;8.63;;
58376;SDS011;58852;43.460;19.812;2022-08-18T01:51:13;11.00;;;9.48;;
58376;SDS011;58852;43.460;19.812;2022-08-18T01:53:39;12.65;;;9.55;;
58376;SDS011;58852;43.460;19.812;2022-08-18T01:56:06;11.95;;;9.55;;
58376;SDS011;58852;43.460;19.812;2022-08-18T01:58:33;11.40;;;8.32;;
58376;SDS011;58852;43.460;19.812;2022-08-18T02:00:59;9.40;;;8.27;;
58376;SDS011;58852;43.460;19.812;2022-08-18T02:03:30;9.48;;;7.25;;
58376;SDS011;58852;43.460;19.812;2022-08-18T02:05:59;11.27;;;8.07;;
58376;SDS011;58852;43.460;19.812;2022-08-18T02:08:26;8.98;;;7.85;;
58376;SDS011;58852;43.460;19.812;2022-08-18T02:10:52;11.32;;;8.88;;
58376;SDS011;58852;43.460;19.812;2022-08-18T02:13:18;12.05;;;9.02;;
58376;SDS011;58852;43.460;19.812;2022-08-18T02:15:44;12.73;;;9.07;;
58376;SDS011;58852;43.460;19.812;2022-08-18T02:18:14;12.52;;;7.72;;
58376;SDS011;58852;43.460;19.812;2022-08-18T02:20:41;10.13;;;8.55;;
58376;SDS011;58852;43.460;19.812;2022-08-18T02:23:07;9.68;;;7.60;;
58376;SDS011;58852;43.460;19.812;2022-08-18T02:25:33;9.63;;;7.45;;
58376;SDS011;58852;43.460;19.812;2022-08-18T02:28:00;11.05;;;7.53;;
58376;SDS011;58852;43.460;19.812;2022-08-18T02:30:26;11.30;;;8.35;;
58376;SDS011;58852;43.460;19.812;2022-08-18T02:32:52;11.27;;;9.20;;
58376;SDS011;58852;43.460;19.812;2022-08-18T02:35:18;12.30;;;8.68;;
58376;SDS011;58852;43.460;19.812;2022-08-18T02:37:44;10.23;;;7.97;;
58376;SDS011;58852;43.460;19.812;2022-08-18T02:40:11;9.50;;;7.70;;
58376;SDS011;58852;43.460;19.812;2022-08-18T02:42:38;10.30;;;8.30;;
58376;SDS011;58852;43.460;19.812;2022-08-18T02:45:04;11.68;;;9.25;;
58376;SDS011;58852;43.460;19.812;2022-08-18T02:47:30;13.63;;;9.07;;
58376;SDS011;58852;43.460;19.812;2022-08-18T02:49:57;13.30;;;8.65;;
58376;SDS011;58852;43.460;19.812;2022-08-18T02:52:23;13.43;;;9.15;;
58376;SDS011;58852;43.460;19.812;2022-08-18T02:54:57;12.20;;;8.50;;
58376;SDS011;58852;43.460;19.812;2022-08-18T02:57:25;8.38;;;7.40;;
58376;SDS011;58852;43.460;19.812;2022-08-18T02:59:51;11.52;;;9.00;;
58376;SDS011;58852;43.460;19.812;2022-08-18T03:02:18;10.32;;;8.18;;
58376;SDS011;58852;43.460;19.812;2022-08-18T03:04:44;10.55;;;8.43;;
58376;SDS011;58852;43.460;19.812;2022-08-18T03:07:11;10.80;;;9.15;;
58376;SDS011;58852;43.460;19.812;2022-08-18T03:09:38;11.82;;;8.35;;
58376;SDS011;58852;43.460;19.812;2022-08-18T03:12:05;10.85;;;8.50;;
58376;SDS011;58852;43.460;19.812;2022-08-18T03:14:32;10.43;;;8.52;;
58376;SDS011;58852;43.460;19.812;2022-08-18T03:16:58;12.05;;;9.23;;
58376;SDS011;58852;43.460;19.812;2022-08-18T03:19:25;11.13;;;8.52;;
58376;SDS011;58852;43.460;19.812;2022-08-18T03:21:53;10.90;;;8.60;;
58376;SDS011;58852;43.460;19.812;2022-08-18T03:24:20;12.45;;;8.07;;
58376;SDS011;58852;43.460;19.812;2022-08-18T03:26:46;10.50;;;7.55;;
58376;SDS011;58852;43.460;19.812;2022-08-18T03:29:13;9.70;;;7.90;;
58376;SDS011;58852;43.460;19.812;2022-08-18T03:31:39;15.82;;;8.82;;
58376;SDS011;58852;43.460;19.812;2022-08-18T03:34:07;9.95;;;7.47;;
58376;SDS011;58852;43.460;19.812;2022-08-18T03:36:34;12.15;;;8.60;;
58376;SDS011;58852;43.460;19.812;2022-08-18T03:39:02;10.77;;;8.35;;
58376;SDS011;58852;43.460;19.812;2022-08-18T03:41:28;11.40;;;8.48;;
58376;SDS011;58852;43.460;19.812;2022-08-18T03:43:55;9.77;;;7.95;;
58376;SDS011;58852;43.460;19.812;2022-08-18T03:46:21;14.38;;;9.35;;
58376;SDS011;58852;43.460;19.812;2022-08-18T03:48:48;12.85;;;8.48;;
58376;SDS011;58852;43.460;19.812;2022-08-18T03:51:16;13.40;;;10.27;;
58376;SDS011;58852;43.460;19.812;2022-08-18T03:53:42;11.25;;;9.73;;
58376;SDS011;58852;43.460;19.812;2022-08-18T03:56:09;14.63;;;10.45;;
58376;SDS011;58852;43.460;19.812;2022-08-18T03:58:40;13.70;;;9.73;;
58376;SDS011;58852;43.460;19.812;2022-08-18T04:01:11;13.23;;;10.15;;
58376;SDS011;58852;43.460;19.812;2022-08-18T04:03:40;16.23;;;10.68;;
58376;SDS011;58852;43.460;19.812;2022-08-18T04:06:06;13.93;;;10.50;;
58376;SDS011;58852;43.460;19.812;2022-08-18T04:08:33;9.73;;;8.63;;
58376;SDS011;58852;43.460;19.812;2022-08-18T04:10:59;12.40;;;9.55;;
58376;SDS011;58852;43.460;19.812;2022-08-18T04:13:25;14.93;;;9.57;;
58376;SDS011;58852;43.460;19.812;2022-08-18T04:15:51;12.77;;;9.70;;
58376;SDS011;58852;43.460;19.812;2022-08-18T04:18:17;12.55;;;8.63;;
58376;SDS011;58852;43.460;19.812;2022-08-18T04:20:43;14.80;;;9.40;;
58376;SDS011;58852;43.460;19.812;2022-08-18T04:23:10;12.02;;;9.95;;
58376;SDS011;58852;43.460;19.812;2022-08-18T04:25:38;12.52;;;8.95;;
58376;SDS011;58852;43.460;19.812;2022-08-18T04:28:04;12.45;;;9.02;;
58376;SDS011;58852;43.460;19.812;2022-08-18T04:30:30;11.05;;;9.05;;
58376;SDS011;58852;43.460;19.812;2022-08-18T04:32:56;10.23;;;8.07;;
58376;SDS011;58852;43.460;19.812;2022-08-18T04:35:23;10.73;;;8.52;;
58376;SDS011;58852;43.460;19.812;2022-08-18T04:37:53;11.95;;;9.55;;
58376;SDS011;58852;43.460;19.812;2022-08-18T04:40:19;13.82;;;9.20;;
58376;SDS011;58852;43.460;19.812;2022-08-18T04:42:45;11.30;;;8.20;;
58376;SDS011;58852;43.460;19.812;2022-08-18T04:45:11;11.90;;;8.63;;
58376;SDS011;58852;43.460;19.812;2022-08-18T04:47:37;17.13;;;9.98;;
58376;SDS011;58852;43.460;19.812;2022-08-18T04:50:05;16.77;;;9.40;;
58376;SDS011;58852;43.460;19.812;2022-08-18T04:52:32;16.92;;;11.80;;
58376;SDS011;58852;43.460;19.812;2022-08-18T04:55:16;11.60;;;8.82;;
58376;SDS011;58852;43.460;19.812;2022-08-18T04:57:42;15.57;;;9.07;;
58376;SDS011;58852;43.460;19.812;2022-08-18T05:00:09;12.70;;;8.93;;
58376;SDS011;58852;43.460;19.812;2022-08-18T05:02:37;11.00;;;8.25;;
58376;SDS011;58852;43.460;19.812;2022-08-18T05:05:03;8.85;;;7.13;;
58376;SDS011;58852;43.460;19.812;2022-08-18T05:07:30;11.35;;;8.27;;
58376;SDS011;58852;43.460;19.812;2022-08-18T05:09:56;12.00;;;8.20;;
58376;SDS011;58852;43.460;19.812;2022-08-18T05:12:22;11.15;;;9.15;;
58376;SDS011;58852;43.460;19.812;2022-08-18T05:14:48;10.55;;;8.25;;
58376;SDS011;58852;43.460;19.812;2022-08-18T05:17:16;13.27;;;8.25;;
58376;SDS011;58852;43.460;19.812;2022-08-18T05:19:42;13.77;;;8.70;;
58376;SDS011;58852;43.460;19.812;2022-08-18T05:22:09;15.32;;;10.82;;
58376;SDS011;58852;43.460;19.812;2022-08-18T05:24:38;14.73;;;7.88;;
58376;SDS011;58852;43.460;19.812;2022-08-18T05:27:05;10.68;;;7.65;;
58376;SDS011;58852;43.460;19.812;2022-08-18T05:29:31;11.20;;;8.88;;
58376;SDS011;58852;43.460;19.812;2022-08-18T05:32:01;12.00;;;8.80;;
58376;SDS011;58852;43.460;19.812;2022-08-18T05:34:28;14.20;;;9.30;;
58376;SDS011;58852;43.460;19.812;2022-08-18T05:39:44;14.95;;;8.70;;
58376;SDS011;58852;43.460;19.812;2022-08-18T05:42:15;11.90;;;8.43;;
58376;SDS011;58852;43.460;19.812;2022-08-18T05:44:44;17.95;;;9.60;;
58376;SDS011;58852;43.460;19.812;2022-08-18T05:49:37;11.15;;;8.57;;
58376;SDS011;58852;43.460;19.812;2022-08-18T05:52:47;12.05;;;9.27;;
58376;SDS011;58852;43.460;19.812;2022-08-18T05:54:54;12.23;;;8.45;;
58376;SDS011;58852;43.460;19.812;2022-08-18T05:57:44;9.98;;;8.07;;
58376;SDS011;58852;43.460;19.812;2022-08-18T06:00:15;13.02;;;8.93;;
58376;SDS011;58852;43.460;19.812;2022-08-18T06:02:58;14.40;;;9.38;;
58376;SDS011;58852;43.460;19.812;2022-08-18T06:05:27;12.88;;;8.93;;
58376;SDS011;58852;43.460;19.812;2022-08-18T06:07:59;15.30;;;11.35;;
58376;SDS011;58852;43.460;19.812;2022-08-18T06:10:26;14.35;;;10.38;;
58376;SDS011;58852;43.460;19.812;2022-08-18T06:12:56;14.75;;;9.32;;
58376;SDS011;58852;43.460;19.812;2022-08-18T06:21:03;43.75;;;14.55;;
58376;SDS011;58852;43.460;19.812;2022-08-18T06:23:38;50.75;;;14.32;;
58376;SDS011;58852;43.460;19.812;2022-08-18T06:26:41;15.43;;;10.70;;
58376;SDS011;58852;43.460;19.812;2022-08-18T06:36:41;18.35;;;10.85;;
58376;SDS011;58852;43.460;19.812;2022-08-18T06:39:23;15.70;;;10.82;;
58376;SDS011;58852;43.460;19.812;2022-08-18T06:41:51;15.45;;;10.40;;
58376;SDS011;58852;43.460;19.812;2022-08-18T06:49:53;12.45;;;8.60;;
58376;SDS011;58852;43.460;19.812;2022-08-18T07:09:49;14.60;;;11.05;;
58376;SDS011;58852;43.460;19.812;2022-08-18T07:12:20;31.52;;;20.92;;
58376;SDS011;58852;43.460;19.812;2022-08-18T07:14:49;15.90;;;11.13;;
58376;SDS011;58852;43.460;19.812;2022-08-18T07:17:34;16.30;;;11.55;;
58376;SDS011;58852;43.460;19.812;2022-08-18T07:22:31;12.73;;;8.38;;
58376;SDS011;58852;43.460;19.812;2022-08-18T07:24:58;14.55;;;12.07;;
58376;SDS011;58852;43.460;19.812;2022-08-18T07:27:39;13.80;;;10.52;;
58376;SDS011;58852;43.460;19.812;2022-08-18T07:32:38;9.68;;;7.38;;
58376;SDS011;58852;43.460;19.812;2022-08-18T07:35:06;13.98;;;9.60;;
58376;SDS011;58852;43.460;19.812;2022-08-18T07:37:47;10.65;;;8.05;;
58376;SDS011;58852;43.460;19.812;2022-08-18T07:42:58;10.27;;;6.88;;
58376;SDS011;58852;43.460;19.812;2022-08-18T07:50:27;12.90;;;7.30;;
58376;SDS011;58852;43.460;19.812;2022-08-18T07:53:06;9.27;;;7.18;;
58376;SDS011;58852;43.460;19.812;2022-08-18T07:55:37;8.40;;;7.47;;
58376;SDS011;58852;43.460;19.812;2022-08-18T08:00:52;12.32;;;7.05;;
58376;SDS011;58852;43.460;19.812;2022-08-18T08:05:59;15.77;;;8.05;;
58376;SDS011;58852;43.460;19.812;2022-08-18T08:11:07;17.63;;;7.45;;
58376;SDS011;58852;43.460;19.812;2022-08-18T08:16:32;16.50;;;7.47;;
58376;SDS011;58852;43.460;19.812;2022-08-18T08:20:18;12.27;;;6.30;;
58376;SDS011;58852;43.460;19.812;2022-08-18T08:25:30;22.45;;;12.80;;
58376;SDS011;58852;43.460;19.812;2022-08-18T08:33:27;17.85;;;7.93;;
58376;SDS011;58852;43.460;19.812;2022-08-18T08:39:15;16.35;;;10.52;;
58376;SDS011;58852;43.460;19.812;2022-08-18T08:41:46;10.25;;;6.15;;
58376;SDS011;58852;43.460;19.812;2022-08-18T08:44:27;16.15;;;7.10;;
58376;SDS011;58852;43.460;19.812;2022-08-18T08:47:24;9.63;;;7.30;;
58376;SDS011;58852;43.460;19.812;2022-08-18T08:49:57;9.88;;;7.00;;
58376;SDS011;58852;43.460;19.812;2022-08-18T08:52:46;8.98;;;6.35;;
58376;SDS011;58852;43.460;19.812;2022-08-18T08:55:36;11.88;;;6.32;;
58376;SDS011;58852;43.460;19.812;2022-08-18T09:00:46;6.82;;;5.15;;
58376;SDS011;58852;43.460;19.812;2022-08-18T09:03:35;9.02;;;5.97;;
58376;SDS011;58852;43.460;19.812;2022-08-18T09:09:06;10.02;;;7.25;;
58376;SDS011;58852;43.460;19.812;2022-08-18T09:22:50;7.00;;;5.28;;
58376;SDS011;58852;43.460;19.812;2022-08-18T09:25:42;9.77;;;4.32;;
58376;SDS011;58852;43.460;19.812;2022-08-18T09:42:43;12.35;;;4.82;;
58376;SDS011;58852;43.460;19.812;2022-08-18T09:47:57;7.38;;;4.32;;
58376;SDS011;58852;43.460;19.812;2022-08-18T09:50:37;9.55;;;5.25;;
58376;SDS011;58852;43.460;19.812;2022-08-18T09:55:58;6.75;;;4.15;;
58376;SDS011;58852;43.460;19.812;2022-08-18T10:03:34;8.80;;;4.53;;
58376;SDS011;58852;43.460;19.812;2022-08-18T10:06:05;9.82;;;4.95;;
58376;SDS011;58852;43.460;19.812;2022-08-18T10:08:38;10.68;;;4.38;;
58376;SDS011;58852;43.460;19.812;2022-08-18T10:11:17;9.88;;;5.90;;
58376;SDS011;58852;43.460;19.812;2022-08-18T10:13:49;7.57;;;5.00;;
58376;SDS011;58852;43.460;19.812;2022-08-18T10:22:08;10.68;;;5.60;;
58376;SDS011;58852;43.460;19.812;2022-08-18T10:27:54;7.68;;;5.50;;
58376;SDS011;58852;43.460;19.812;2022-08-18T10:33:02;6.75;;;3.80;;
58376;SDS011;58852;43.460;19.812;2022-08-18T10:38:05;5.55;;;3.20;;
58376;SDS011;58852;43.460;19.812;2022-08-18T10:40:41;6.78;;;3.33;;
58376;SDS011;58852;43.460;19.812;2022-08-18T10:44:02;8.55;;;4.30;;
58376;SDS011;58852;43.460;19.812;2022-08-18T10:46:02;7.80;;;4.40;;
58376;SDS011;58852;43.460;19.812;2022-08-18T10:48:30;6.35;;;4.32;;
58376;SDS011;58852;43.460;19.812;2022-08-18T10:51:02;13.55;;;5.10;;
58376;SDS011;58852;43.460;19.812;2022-08-18T10:53:46;15.05;;;3.95;;
58376;SDS011;58852;43.460;19.812;2022-08-18T10:59:02;6.95;;;3.42;;
58376;SDS011;58852;43.460;19.812;2022-08-18T11:01:35;9.73;;;3.95;;
58376;SDS011;58852;43.460;19.812;2022-08-18T11:06:49;7.15;;;3.85;;
58376;SDS011;58852;43.460;19.812;2022-08-18T11:09:23;4.78;;;3.08;;
58376;SDS011;58852;43.460;19.812;2022-08-18T11:11:51;5.72;;;3.58;;
58376;SDS011;58852;43.460;19.812;2022-08-18T11:19:22;6.32;;;3.65;;
58376;SDS011;58852;43.460;19.812;2022-08-18T11:21:49;6.93;;;4.03;;
58376;SDS011;58852;43.460;19.812;2022-08-18T11:24:25;7.25;;;3.90;;
58376;SDS011;58852;43.460;19.812;2022-08-18T11:26:53;7.18;;;4.22;;
58376;SDS011;58852;43.460;19.812;2022-08-18T11:29:23;9.57;;;3.95;;
58376;SDS011;58852;43.460;19.812;2022-08-18T11:31:52;6.07;;;3.60;;
58376;SDS011;58852;43.460;19.812;2022-08-18T11:34:24;7.22;;;4.32;;
58376;SDS011;58852;43.460;19.812;2022-08-18T11:36:57;10.40;;;4.22;;
58376;SDS011;58852;43.460;19.812;2022-08-18T11:39:24;7.28;;;4.70;;
58376;SDS011;58852;43.460;19.812;2022-08-18T11:41:50;9.45;;;4.03;;
58376;SDS011;58852;43.460;19.812;2022-08-18T11:44:18;7.30;;;3.95;;
58376;SDS011;58852;43.460;19.812;2022-08-18T11:46:45;6.65;;;3.95;;
58376;SDS011;58852;43.460;19.812;2022-08-18T11:49:14;7.90;;;4.18;;
58376;SDS011;58852;43.460;19.812;2022-08-18T11:51:51;8.82;;;5.28;;
58376;SDS011;58852;43.460;19.812;2022-08-18T11:54:19;7.75;;;4.32;;
58376;SDS011;58852;43.460;19.812;2022-08-18T11:56:45;5.78;;;4.30;;
58376;SDS011;58852;43.460;19.812;2022-08-18T12:01:53;9.25;;;4.97;;
58376;SDS011;58852;43.460;19.812;2022-08-18T12:04:21;11.65;;;4.88;;
58376;SDS011;58852;43.460;19.812;2022-08-18T12:12:29;7.05;;;4.38;;
58376;SDS011;58852;43.460;19.812;2022-08-18T12:14:49;6.55;;;4.68;;
58376;SDS011;58852;43.460;19.812;2022-08-18T12:17:16;8.70;;;3.97;;
58376;SDS011;58852;43.460;19.812;2022-08-18T12:19:42;13.23;;;6.13;;
58376;SDS011;58852;43.460;19.812;2022-08-18T12:22:16;7.05;;;4.25;;
58376;SDS011;58852;43.460;19.812;2022-08-18T12:24:42;9.60;;;4.60;;
58376;SDS011;58852;43.460;19.812;2022-08-18T12:27:10;8.02;;;4.18;;
58376;SDS011;58852;43.460;19.812;2022-08-18T12:29:37;9.48;;;4.13;;
58376;SDS011;58852;43.460;19.812;2022-08-18T12:32:03;9.85;;;3.60;;
58376;SDS011;58852;43.460;19.812;2022-08-18T12:34:29;8.93;;;4.55;;
58376;SDS011;58852;43.460;19.812;2022-08-18T12:36:57;7.22;;;3.97;;
58376;SDS011;58852;43.460;19.812;2022-08-18T12:39:27;6.72;;;4.03;;
58376;SDS011;58852;43.460;19.812;2022-08-18T12:41:54;10.57;;;4.22;;
58376;SDS011;58852;43.460;19.812;2022-08-18T12:44:21;9.10;;;3.67;;
58376;SDS011;58852;43.460;19.812;2022-08-18T12:46:47;7.75;;;3.53;;
58376;SDS011;58852;43.460;19.812;2022-08-18T12:49:14;6.78;;;4.65;;
58376;SDS011;58852;43.460;19.812;2022-08-18T12:51:44;6.45;;;3.42;;
58376;SDS011;58852;43.460;19.812;2022-08-18T12:54:11;9.20;;;4.50;;
58376;SDS011;58852;43.460;19.812;2022-08-18T12:56:37;8.82;;;4.38;;
58376;SDS011;58852;43.460;19.812;2022-08-18T12:59:05;14.85;;;4.30;;
58376;SDS011;58852;43.460;19.812;2022-08-18T13:01:33;9.45;;;4.35;;
58376;SDS011;58852;43.460;19.812;2022-08-18T13:04:00;9.13;;;4.70;;
58376;SDS011;58852;43.460;19.812;2022-08-18T13:06:27;10.32;;;4.65;;
58376;SDS011;58852;43.460;19.812;2022-08-18T13:08:54;10.88;;;4.20;;
58376;SDS011;58852;43.460;19.812;2022-08-18T13:11:21;12.07;;;3.72;;
58376;SDS011;58852;43.460;19.812;2022-08-18T13:13:47;9.75;;;4.18;;
58376;SDS011;58852;43.460;19.812;2022-08-18T13:16:14;6.85;;;3.95;;
58376;SDS011;58852;43.460;19.812;2022-08-18T13:18:41;10.75;;;6.30;;
58376;SDS011;58852;43.460;19.812;2022-08-18T13:21:07;11.90;;;5.38;;
58376;SDS011;58852;43.460;19.812;2022-08-18T13:23:34;8.80;;;4.35;;
58376;SDS011;58852;43.460;19.812;2022-08-18T13:26:01;8.40;;;4.15;;
58376;SDS011;58852;43.460;19.812;2022-08-18T13:28:28;8.10;;;3.60;;
58376;SDS011;58852;43.460;19.812;2022-08-18T13:30:54;9.25;;;4.50;;
58376;SDS011;58852;43.460;19.812;2022-08-18T13:33:21;9.75;;;4.55;;
58376;SDS011;58852;43.460;19.812;2022-08-18T13:35:47;8.45;;;4.10;;
58376;SDS011;58852;43.460;19.812;2022-08-18T13:38:14;11.60;;;4.70;;
58376;SDS011;58852;43.460;19.812;2022-08-18T13:40:42;7.80;;;3.92;;
58376;SDS011;58852;43.460;19.812;2022-08-18T13:43:09;11.10;;;4.18;;
58376;SDS011;58852;43.460;19.812;2022-08-18T13:45:36;12.65;;;4.38;;
58376;SDS011;58852;43.460;19.812;2022-08-18T13:48:03;8.23;;;3.88;;
58376;SDS011;58852;43.460;19.812;2022-08-18T13:50:29;11.30;;;4.45;;
58376;SDS011;58852;43.460;19.812;2022-08-18T13:52:56;14.43;;;4.65;;
58376;SDS011;58852;43.460;19.812;2022-08-18T13:55:26;11.57;;;4.63;;
58376;SDS011;58852;43.460;19.812;2022-08-18T13:57:53;9.82;;;4.72;;
58376;SDS011;58852;43.460;19.812;2022-08-18T14:00:20;10.60;;;3.72;;
58376;SDS011;58852;43.460;19.812;2022-08-18T14:02:47;12.18;;;4.75;;
58376;SDS011;58852;43.460;19.812;2022-08-18T14:05:20;12.10;;;4.33;;
58376;SDS011;58852;43.460;19.812;2022-08-18T14:07:46;12.93;;;4.78;;
58376;SDS011;58852;43.460;19.812;2022-08-18T14:10:12;9.88;;;4.20;;
58376;SDS011;58852;43.460;19.812;2022-08-18T14:12:39;8.60;;;4.55;;
58376;SDS011;58852;43.460;19.812;2022-08-18T14:15:06;14.73;;;5.78;;
58376;SDS011;58852;43.460;19.812;2022-08-18T14:17:33;16.38;;;4.03;;
58376;SDS011;58852;43.460;19.812;2022-08-18T14:19:59;20.05;;;4.78;;
58376;SDS011;58852;43.460;19.812;2022-08-18T14:22:43;13.27;;;5.47;;
58376;SDS011;58852;43.460;19.812;2022-08-18T14:25:28;16.73;;;6.65;;
58376;SDS011;58852;43.460;19.812;2022-08-18T14:28:12;14.15;;;9.48;;
58376;SDS011;58852;43.460;19.812;2022-08-18T14:30:42;17.25;;;7.30;;
58376;SDS011;58852;43.460;19.812;2022-08-18T14:33:09;17.67;;;8.13;;
58376;SDS011;58852;43.460;19.812;2022-08-18T14:35:39;18.45;;;8.88;;
58376;SDS011;58852;43.460;19.812;2022-08-18T14:38:05;18.42;;;9.57;;
58376;SDS011;58852;43.460;19.812;2022-08-18T14:40:32;16.00;;;10.23;;
58376;SDS011;58852;43.460;19.812;2022-08-18T14:42:59;19.90;;;11.73;;
58376;SDS011;58852;43.460;19.812;2022-08-18T14:45:28;26.13;;;13.18;;
58376;SDS011;58852;43.460;19.812;2022-08-18T14:47:54;25.48;;;12.40;;
58376;SDS011;58852;43.460;19.812;2022-08-18T14:50:21;27.23;;;14.13;;
58376;SDS011;58852;43.460;19.812;2022-08-18T14:52:48;22.77;;;13.75;;
58376;SDS011;58852;43.460;19.812;2022-08-18T14:55:15;22.58;;;12.55;;
58376;SDS011;58852;43.460;19.812;2022-08-18T14:57:42;20.75;;;12.88;;
58376;SDS011;58852;43.460;19.812;2022-08-18T15:00:09;26.08;;;17.08;;
58376;SDS011;58852;43.460;19.812;2022-08-18T15:02:39;25.20;;;16.80;;
58376;SDS011;58852;43.460;19.812;2022-08-18T15:05:06;34.17;;;22.63;;
58376;SDS011;58852;43.460;19.812;2022-08-18T15:07:33;29.90;;;19.58;;
58376;SDS011;58852;43.460;19.812;2022-08-18T15:10:02;31.23;;;20.30;;
58376;SDS011;58852;43.460;19.812;2022-08-18T15:12:33;32.20;;;18.33;;
58376;SDS011;58852;43.460;19.812;2022-08-18T15:14:59;27.33;;;17.80;;
58376;SDS011;58852;43.460;19.812;2022-08-18T15:17:25;33.22;;;19.50;;
58376;SDS011;58852;43.460;19.812;2022-08-18T15:19:51;25.58;;;17.67;;
58376;SDS011;58852;43.460;19.812;2022-08-18T15:22:18;31.40;;;17.88;;
58376;SDS011;58852;43.460;19.812;2022-08-18T15:25:04;39.65;;;22.50;;
58376;SDS011;58852;43.460;19.812;2022-08-18T15:27:49;29.52;;;19.23;;
58376;SDS011;58852;43.460;19.812;2022-08-18T15:30:16;26.60;;;17.77;;
58376;SDS011;58852;43.460;19.812;2022-08-18T15:32:43;27.13;;;19.25;;
58376;SDS011;58852;43.460;19.812;2022-08-18T15:35:10;27.85;;;19.13;;
58376;SDS011;58852;43.460;19.812;2022-08-18T15:37:42;36.53;;;22.08;;
58376;SDS011;58852;43.460;19.812;2022-08-18T15:40:13;31.05;;;18.40;;
58376;SDS011;58852;43.460;19.812;2022-08-18T15:42:50;28.67;;;18.30;;
58376;SDS011;58852;43.460;19.812;2022-08-18T15:45:25;26.63;;;18.23;;
58376;SDS011;58852;43.460;19.812;2022-08-18T15:47:53;28.90;;;18.25;;
58376;SDS011;58852;43.460;19.812;2022-08-18T15:50:19;27.88;;;15.48;;
58376;SDS011;58852;43.460;19.812;2022-08-18T15:52:47;28.15;;;17.23;;
58376;SDS011;58852;43.460;19.812;2022-08-18T15:55:18;26.98;;;15.20;;
58376;SDS011;58852;43.460;19.812;2022-08-18T15:57:45;25.90;;;15.80;;
58376;SDS011;58852;43.460;19.812;2022-08-18T16:00:12;32.58;;;15.85;;
58376;SDS011;58852;43.460;19.812;2022-08-18T16:02:41;24.08;;;14.20;;
58376;SDS011;58852;43.460;19.812;2022-08-18T16:05:08;25.38;;;16.83;;
58376;SDS011;58852;43.460;19.812;2022-08-18T16:07:33;26.90;;;15.93;;
58376;SDS011;58852;43.460;19.812;2022-08-18T16:10:01;24.17;;;15.20;;
58376;SDS011;58852;43.460;19.812;2022-08-18T16:12:28;24.73;;;14.45;;
58376;SDS011;58852;43.460;19.812;2022-08-18T16:14:53;25.55;;;17.67;;
58376;SDS011;58852;43.460;19.812;2022-08-18T16:17:19;27.20;;;17.67;;
58376;SDS011;58852;43.460;19.812;2022-08-18T16:19:46;23.13;;;15.57;;
58376;SDS011;58852;43.460;19.812;2022-08-18T16:22:13;26.92;;;16.45;;
58376;SDS011;58852;43.460;19.812;2022-08-18T16:24:39;24.80;;;16.45;;
58376;SDS011;58852;43.460;19.812;2022-08-18T16:27:06;25.33;;;15.32;;
58376;SDS011;58852;43.460;19.812;2022-08-18T16:29:33;32.60;;;16.23;;
58376;SDS011;58852;43.460;19.812;2022-08-18T16:31:59;29.63;;;17.40;;
58376;SDS011;58852;43.460;19.812;2022-08-18T16:34:25;25.48;;;15.60;;
58376;SDS011;58852;43.460;19.812;2022-08-18T16:36:52;31.15;;;16.88;;
58376;SDS011;58852;43.460;19.812;2022-08-18T16:39:21;24.92;;;12.75;;
58376;SDS011;58852;43.460;19.812;2022-08-18T16:41:48;19.20;;;12.20;;
58376;SDS011;58852;43.460;19.812;2022-08-18T16:44:14;25.02;;;13.02;;
58376;SDS011;58852;43.460;19.812;2022-08-18T16:46:41;20.25;;;14.18;;
58376;SDS011;58852;43.460;19.812;2022-08-18T16:49:07;27.13;;;15.05;;
58376;SDS011;58852;43.460;19.812;2022-08-18T16:51:34;25.05;;;15.63;;
58376;SDS011;58852;43.460;19.812;2022-08-18T16:54:00;28.38;;;14.43;;
58376;SDS011;58852;43.460;19.812;2022-08-18T16:56:28;30.75;;;15.82;;
58376;SDS011;58852;43.460;19.812;2022-08-18T16:58:55;60.13;;;50.83;;
58376;SDS011;58852;43.460;19.812;2022-08-18T17:01:40;23.48;;;15.05;;
58376;SDS011;58852;43.460;19.812;2022-08-18T17:04:26;26.27;;;13.13;;
58376;SDS011;58852;43.460;19.812;2022-08-18T17:06:54;26.88;;;14.45;;
58376;SDS011;58852;43.460;19.812;2022-08-18T17:09:20;24.52;;;10.55;;
58376;SDS011;58852;43.460;19.812;2022-08-18T17:11:47;23.60;;;11.27;;